createdAt,value
2019-02-27T00:00:46.956Z,66.52
2019-02-27T00:03:15.656Z,65.61
2019-02-27T00:05:44.213Z,65.21
2019-02-27T00:08:12.837Z,63.14
2019-02-27T00:10:41.448Z,62.60
2019-02-27T00:13:10.075Z,62.83
2019-02-27T00:15:38.639Z,63.09
2019-02-27T00:18:07.343Z,63.70
2019-02-27T00:20:37.182Z,64.32
2019-02-27T00:23:06.381Z,65.03
2019-02-27T00:25:36.152Z,66.62
2019-02-27T00:28:05.325Z,67.90
2019-02-27T00:30:37.950Z,71.40
2019-02-27T00:33:04.410Z,72.70
2019-02-27T00:35:32.961Z,73.41
2019-02-27T00:38:01.680Z,74.00
2019-02-27T00:40:30.326Z,74.05
2019-02-27T00:42:58.916Z,73.45
2019-02-27T00:45:27.947Z,74.57
2019-02-27T00:47:56.543Z,74.32
2019-02-27T00:50:28.123Z,73.93
2019-02-27T00:52:56.761Z,74.50
2019-02-27T00:55:25.385Z,75.34
2019-02-27T00:57:54.458Z,76.96
2019-02-27T01:00:23.587Z,78.32
2019-02-27T01:02:53.475Z,78.40
2019-02-27T01:05:22.281Z,79.54
2019-02-27T01:07:55.077Z,78.75
2019-02-27T01:10:23.700Z,77.76
2019-02-27T01:12:52.525Z,77.24
2019-02-27T01:15:21.689Z,77.31
2019-02-27T01:17:50.366Z,77.06
2019-02-27T01:20:18.991Z,77.67
2019-02-27T01:22:47.550Z,78.39
2019-02-27T01:25:16.932Z,79.84
2019-02-27T01:27:45.546Z,80.46
2019-02-27T01:30:16.738Z,80.14
2019-02-27T01:32:45.365Z,80.49
2019-02-27T01:35:17.797Z,80.54
2019-02-27T01:37:44.817Z,82.12
2019-02-27T01:40:17.856Z,83.50
2019-02-27T01:42:45.437Z,84.55
2019-02-27T01:45:20.650Z,83.73
2019-02-27T01:47:46.257Z,84.28
2019-02-27T01:50:33.021Z,85.04
2019-02-27T01:53:01.649Z,86.46
2019-02-27T01:55:30.308Z,87.43
2019-02-27T01:57:58.981Z,87.78
2019-02-27T02:00:27.607Z,85.33
2019-02-27T02:02:56.386Z,84.29
2019-02-27T02:05:27.466Z,83.66
2019-02-27T02:07:56.259Z,84.17
2019-02-27T02:10:28.092Z,83.55
2019-02-27T02:13:04.282Z,82.56
2019-02-27T02:15:47.605Z,81.47
2019-02-27T02:18:51.171Z,80.57
2019-02-27T02:21:40.963Z,81.54
2019-02-27T02:24:27.422Z,81.99
2019-02-27T02:27:02.974Z,81.22
2019-02-27T02:30:00.476Z,79.29
2019-02-27T02:32:52.349Z,80.25
2019-02-27T02:35:49.557Z,79.98
2019-02-27T02:38:22.534Z,81.11
2019-02-27T02:41:12.360Z,82.66
2019-02-27T02:43:55.813Z,83.27
2019-02-27T02:46:45.321Z,84.05
2019-02-27T02:49:25.609Z,81.49
2019-02-27T02:52:06.101Z,82.71
2019-02-27T02:54:55.680Z,82.39
2019-02-27T02:58:00.425Z,82.59
2019-02-27T03:01:02.138Z,83.21
2019-02-27T03:03:37.402Z,84.22
2019-02-27T03:06:35.977Z,86.46
2019-02-27T03:09:30.216Z,86.91
2019-02-27T03:12:11.149Z,89.47
2019-02-27T03:15:16.267Z,90.15
2019-02-27T03:17:56.816Z,90.51
2019-02-27T03:20:53.972Z,91.61
2019-02-27T03:23:34.152Z,90.73
2019-02-27T03:26:17.886Z,91.51
2019-02-27T03:28:58.270Z,92.13
2019-02-27T03:32:00.020Z,93.17
2019-02-27T03:34:50.718Z,94.70
2019-02-27T03:37:26.819Z,95.69
2019-02-27T03:40:16.509Z,95.64
2019-02-27T03:42:59.867Z,95.48
2019-02-27T03:45:34.206Z,92.74
2019-02-27T03:48:11.578Z,90.93
2019-02-27T03:50:49.919Z,88.77
2019-02-27T03:53:32.837Z,88.74
2019-02-27T03:56:19.599Z,89.55
2019-02-27T03:58:57.238Z,89.86
2019-02-27T04:01:47.811Z,90.94
2019-02-27T04:04:35.424Z,93.47
2019-02-27T04:07:43.525Z,95.46
2019-02-27T04:10:12.157Z,96.70
2019-02-27T04:12:40.842Z,98.26
2019-02-27T04:15:09.941Z,97.95
2019-02-27T04:17:37.325Z,97.88
2019-02-27T04:20:06.591Z,98.39
2019-02-27T04:22:37.485Z,97.40
2019-02-27T04:25:07.937Z,96.28
2019-02-27T04:27:37.502Z,96.25
2019-02-27T04:30:08.576Z,97.62
2019-02-27T04:32:37.171Z,97.91
2019-02-27T04:35:07.120Z,98.57
2019-02-27T04:37:35.737Z,98.47
2019-02-27T04:40:05.947Z,97.58
2019-02-27T04:42:34.558Z,97.29
2019-02-27T04:45:03.249Z,96.44
2019-02-27T04:47:31.887Z,96.14
2019-02-27T04:50:00.376Z,95.70
2019-02-27T04:52:34.882Z,95.32
2019-02-27T04:55:03.355Z,95.34
2019-02-27T04:57:33.732Z,96.06
2019-02-27T05:00:02.373Z,96.43
2019-02-27T05:02:31.044Z,98.48
2019-02-27T05:04:59.590Z,99.05
2019-02-27T05:07:28.271Z,99.91
2019-02-27T05:09:56.818Z,100.00
2019-02-27T05:12:25.406Z,100.00
2019-02-27T05:14:54.009Z,100.00
2019-02-27T05:17:22.555Z,100.00
2019-02-27T05:19:52.039Z,100.00
2019-02-27T05:22:20.708Z,100.00
2019-02-27T05:24:49.205Z,100.00
2019-02-27T05:27:17.880Z,100.00
2019-02-27T05:29:46.428Z,99.81
2019-02-27T05:32:14.988Z,99.24
2019-02-27T05:34:43.520Z,97.98
2019-02-27T05:37:12.152Z,97.81
2019-02-27T05:39:40.758Z,95.47
2019-02-27T05:42:09.240Z,95.05
2019-02-27T05:44:37.781Z,96.81
2019-02-27T05:47:08.626Z,95.51
2019-02-27T05:49:36.681Z,93.47
2019-02-27T05:52:05.310Z,91.65
2019-02-27T05:54:33.943Z,91.92
2019-02-27T05:57:02.549Z,92.01
2019-02-27T05:59:37.140Z,92.63
2019-02-27T06:02:05.677Z,92.86
2019-02-27T06:04:34.561Z,94.20
2019-02-27T06:07:03.514Z,92.46
2019-02-27T06:09:32.336Z,93.33
2019-02-27T06:12:01.046Z,93.36
2019-02-27T06:14:29.744Z,91.42
2019-02-27T06:16:58.388Z,90.21
2019-02-27T06:19:27.056Z,89.74
2019-02-27T06:21:57.958Z,89.15
2019-02-27T06:24:26.709Z,89.33
2019-02-27T06:26:55.328Z,90.21
2019-02-27T06:29:24.181Z,91.45
2019-02-27T06:31:52.957Z,90.85
2019-02-27T06:34:22.307Z,90.76
2019-02-27T06:36:51.957Z,91.77
2019-02-27T06:39:20.717Z,92.57
2019-02-27T06:41:49.746Z,92.19
2019-02-27T06:44:19.218Z,92.92
2019-02-27T06:46:47.878Z,92.75
2019-02-27T06:49:18.282Z,91.15
2019-02-27T06:51:47.207Z,89.56
2019-02-27T06:54:18.385Z,90.39
2019-02-27T06:56:46.583Z,90.78
2019-02-27T06:59:15.292Z,89.35
2019-02-27T07:01:45.023Z,89.99
2019-02-27T07:04:14.461Z,89.93
2019-02-27T07:06:46.107Z,89.56
2019-02-27T07:09:14.846Z,87.59
2019-02-27T07:11:48.919Z,87.06
2019-02-27T07:14:17.763Z,86.34
2019-02-27T07:16:46.502Z,85.49
2019-02-27T07:19:15.901Z,86.13
2019-02-27T07:21:45.403Z,84.34
2019-02-27T07:24:17.175Z,82.94
2019-02-27T07:26:47.566Z,81.97
2019-02-27T07:29:21.606Z,80.61
2019-02-27T07:31:52.178Z,80.73
2019-02-27T07:34:20.060Z,78.34
2019-02-27T07:36:50.202Z,78.35
2019-02-27T07:39:18.940Z,75.98
2019-02-27T07:41:47.723Z,76.84
2019-02-27T07:44:16.501Z,77.98
2019-02-27T07:46:46.586Z,76.04
2019-02-27T07:49:15.471Z,74.94
2019-02-27T07:51:44.288Z,74.27
2019-02-27T07:54:14.925Z,73.19
2019-02-27T07:56:43.641Z,71.80
2019-02-27T07:59:12.311Z,72.77
2019-02-27T08:01:43.726Z,69.95
2019-02-27T08:04:11.416Z,68.54
2019-02-27T08:06:41.445Z,67.70
2019-02-27T08:09:10.266Z,67.95
2019-02-27T08:11:38.823Z,66.53
2019-02-27T08:14:07.506Z,66.05
2019-02-27T08:16:37.006Z,66.15
2019-02-27T08:19:05.787Z,63.60
2019-02-27T08:21:34.497Z,63.13
2019-02-27T08:24:06.799Z,64.26
2019-02-27T08:26:36.441Z,63.99
2019-02-27T08:29:07.400Z,64.91
2019-02-27T08:31:37.352Z,64.01
2019-02-27T08:34:06.041Z,63.18
2019-02-27T08:36:34.866Z,63.80
2019-02-27T08:39:04.626Z,62.77
2019-02-27T08:41:33.454Z,62.86
2019-02-27T08:44:02.395Z,62.74
2019-02-27T08:46:31.102Z,64.36
2019-02-27T08:48:59.877Z,63.10
2019-02-27T08:51:31.506Z,62.64
2019-02-27T08:54:00.367Z,62.28
2019-02-27T08:56:30.031Z,60.66
2019-02-27T08:58:59.019Z,60.75
2019-02-27T09:01:27.791Z,59.71
2019-02-27T09:03:58.128Z,58.04
2019-02-27T09:06:30.318Z,56.89
2019-02-27T09:09:07.974Z,56.67
2019-02-27T09:11:41.813Z,57.91
2019-02-27T09:14:13.582Z,58.93
2019-02-27T09:16:43.372Z,61.03
2019-02-27T09:19:15.431Z,60.03
2019-02-27T09:21:46.441Z,60.92
2019-02-27T09:24:17.876Z,60.89
2019-02-27T09:26:47.727Z,61.35
2019-02-27T09:29:22.675Z,61.81
2019-02-27T09:32:00.214Z,62.10
2019-02-27T09:34:29.529Z,62.05
2019-02-27T09:36:58.547Z,63.06
2019-02-27T09:39:31.033Z,62.04
2019-02-27T09:42:03.033Z,62.31
2019-02-27T09:44:36.394Z,64.07
2019-02-27T09:47:12.720Z,65.26
2019-02-27T09:49:44.996Z,66.06
2019-02-27T09:52:23.708Z,67.78
2019-02-27T09:54:57.708Z,67.09
2019-02-27T09:57:32.861Z,65.21
2019-02-27T10:00:03.236Z,65.45
2019-02-27T10:02:31.922Z,64.48
2019-02-27T10:05:03.154Z,63.62
2019-02-27T10:07:31.252Z,63.90
2019-02-27T10:09:59.932Z,64.60
2019-02-27T10:12:28.767Z,63.55
2019-02-27T10:14:57.558Z,63.95
2019-02-27T10:17:26.268Z,64.01
2019-02-27T10:19:54.890Z,63.89
2019-02-27T10:22:24.632Z,60.31
2019-02-27T10:24:56.350Z,60.04
2019-02-27T10:27:25.481Z,58.92
2019-02-27T10:29:58.231Z,59.01
2019-02-27T10:32:27.028Z,59.37
2019-02-27T10:34:56.135Z,61.32
2019-02-27T10:37:25.064Z,61.76
2019-02-27T10:39:53.946Z,63.16
2019-02-27T10:42:25.544Z,64.35
2019-02-27T10:45:00.225Z,65.40
2019-02-27T10:47:30.401Z,65.48
2019-02-27T10:50:01.894Z,64.49
2019-02-27T10:52:33.244Z,63.83
2019-02-27T10:55:05.711Z,66.46
2019-02-27T10:57:38.410Z,70.20
2019-02-27T11:00:25.854Z,75.45
2019-02-27T11:02:54.632Z,83.42
2019-02-27T11:05:24.213Z,87.45
2019-02-27T11:07:57.500Z,87.41
2019-02-27T11:10:31.280Z,94.28
2019-02-27T11:13:05.679Z,100.00
2019-02-27T11:15:51.319Z,100.00
2019-02-27T11:18:42.753Z,100.00
2019-02-27T11:21:49.394Z,100.00
2019-02-27T11:24:39.245Z,100.00
2019-02-27T11:27:45.932Z,100.00
2019-02-27T11:33:51.771Z,100.00
2019-02-27T11:36:58.115Z,100.00
2019-02-27T11:39:47.947Z,100.00
2019-02-27T11:42:24.165Z,100.00
2019-02-27T11:44:54.648Z,100.00
2019-02-27T11:47:31.048Z,100.00
2019-02-27T11:50:01.327Z,100.00
2019-02-27T11:55:35.135Z,100.00
2019-02-27T11:58:11.051Z,100.00
2019-02-27T12:00:41.439Z,100.00
2019-02-27T12:03:17.664Z,98.36
2019-02-27T12:05:47.931Z,88.02
2019-02-27T12:08:26.837Z,84.87
2019-02-27T12:10:57.380Z,88.12
2019-02-27T12:13:34.899Z,84.75
2019-02-27T12:16:08.379Z,82.37
2019-02-27T12:21:32.836Z,79.57
2019-02-27T12:24:09.622Z,79.30
2019-02-27T12:26:42.497Z,76.43
2019-02-27T12:29:18.523Z,74.39
2019-02-27T12:31:48.982Z,69.52
2019-02-27T12:34:25.257Z,68.56
2019-02-27T12:36:55.637Z,70.11
2019-02-27T12:39:34.371Z,67.83
2019-02-27T12:47:44.143Z,49.09
2019-02-27T12:50:18.355Z,50.64
2019-02-27T12:52:48.151Z,54.58
2019-02-27T12:55:20.573Z,58.01
2019-02-27T12:57:53.116Z,61.27
2019-02-27T13:00:28.852Z,61.30
2019-02-27T13:02:59.091Z,62.21
2019-02-27T13:05:49.449Z,65.78
2019-02-27T13:08:20.849Z,65.82
2019-02-27T13:10:49.613Z,65.89
2019-02-27T13:13:18.634Z,66.10
2019-02-27T13:15:47.356Z,67.80
2019-02-27T13:18:18.951Z,69.80
2019-02-27T13:20:47.622Z,70.18
2019-02-27T13:23:17.849Z,68.65
2019-02-27T13:25:46.519Z,72.83
2019-02-27T13:28:15.704Z,73.24
2019-02-27T13:30:44.447Z,75.22
2019-02-27T13:33:13.275Z,74.18
2019-02-27T13:35:41.973Z,72.08
2019-02-27T13:38:10.777Z,71.35
2019-02-27T13:40:39.470Z,70.94
2019-02-27T13:43:10.785Z,70.73
2019-02-27T13:45:39.695Z,68.48
2019-02-27T13:48:11.356Z,68.27
2019-02-27T13:50:40.006Z,69.46
2019-02-27T13:53:10.434Z,69.99
2019-02-27T13:55:39.041Z,69.50
2019-02-27T13:58:07.974Z,69.92
2019-02-27T14:00:39.751Z,70.04
2019-02-27T14:03:12.391Z,70.52
2019-02-27T14:05:38.754Z,69.88
2019-02-27T14:08:07.569Z,70.40
2019-02-27T14:10:36.228Z,69.59
2019-02-27T14:13:09.700Z,69.65
2019-02-27T14:15:37.160Z,63.88
2019-02-27T14:18:05.901Z,63.70
2019-02-27T14:20:37.721Z,65.20
2019-02-27T14:23:06.583Z,62.55
2019-02-27T14:25:35.225Z,64.13
2019-02-27T14:28:03.958Z,63.72
2019-02-27T14:30:50.414Z,64.27
2019-02-27T14:33:19.557Z,65.09
2019-02-27T14:35:49.208Z,64.98
2019-02-27T14:38:17.825Z,63.91
2019-02-27T14:40:46.503Z,64.36
2019-02-27T14:43:15.172Z,64.34
2019-02-27T14:45:43.845Z,63.67
2019-02-27T14:48:12.485Z,65.26
2019-02-27T14:50:41.127Z,65.29
2019-02-27T14:53:09.785Z,65.16
2019-02-27T14:55:41.266Z,67.16
2019-02-27T14:58:09.928Z,66.75
2019-02-27T15:00:40.866Z,67.84
2019-02-27T15:03:09.103Z,70.00
2019-02-27T15:05:42.789Z,68.76
2019-02-27T15:08:08.037Z,68.48
2019-02-27T15:10:40.050Z,68.11
2019-02-27T15:13:07.135Z,68.90
2019-02-27T15:15:35.768Z,70.54
2019-02-27T15:18:05.136Z,72.36
2019-02-27T15:20:34.639Z,75.67
2019-02-27T15:23:03.365Z,79.09
2019-02-27T15:25:32.029Z,83.48
2019-02-27T15:28:06.633Z,83.23
2019-02-27T15:30:35.303Z,84.95
2019-02-27T15:33:05.285Z,83.59
2019-02-27T15:35:35.621Z,87.03
2019-02-27T15:38:04.554Z,91.25
2019-02-27T15:40:33.191Z,93.72
2019-02-27T15:43:10.667Z,97.21
2019-02-27T15:45:32.330Z,98.75
2019-02-27T15:48:00.964Z,100.00
2019-02-27T15:50:34.551Z,100.00
2019-02-27T15:53:03.234Z,100.00
2019-02-27T15:55:34.257Z,100.00
2019-02-27T15:58:02.259Z,100.00
2019-02-27T16:00:30.888Z,100.00
2019-02-27T16:02:59.558Z,100.00
2019-02-27T16:05:31.242Z,100.00
2019-02-27T16:07:58.518Z,100.00
2019-02-27T16:10:28.222Z,100.00
2019-02-27T16:12:59.867Z,100.00
2019-02-27T16:15:27.403Z,100.00
2019-02-27T16:17:56.033Z,100.00
2019-02-27T16:20:29.404Z,100.00
2019-02-27T16:22:58.009Z,100.00
2019-02-27T16:25:30.064Z,100.00
2019-02-27T16:27:58.749Z,100.00
2019-02-27T16:30:32.287Z,100.00
2019-02-27T16:32:59.459Z,100.00
2019-02-27T16:35:28.091Z,100.00
2019-02-27T16:37:57.863Z,100.00
2019-02-27T16:40:29.029Z,100.00
2019-02-27T16:42:57.590Z,100.00
2019-02-27T16:45:37.626Z,100.00
2019-02-27T16:48:06.556Z,100.00
2019-02-27T16:50:35.187Z,100.00
2019-02-27T16:53:03.878Z,100.00
2019-02-27T16:55:35.681Z,100.00
2019-02-27T16:58:03.351Z,100.00
2019-02-27T17:00:38.200Z,100.00
2019-02-27T17:03:06.876Z,100.00
2019-02-27T17:05:40.256Z,100.00
2019-02-27T17:08:08.709Z,100.00
2019-02-27T17:10:40.978Z,100.00
2019-02-27T17:13:14.622Z,100.00
2019-02-27T17:15:40.206Z,100.00
2019-02-27T17:18:08.828Z,100.00
2019-02-27T17:20:37.458Z,100.00
2019-02-27T17:23:10.488Z,100.00
2019-02-27T17:25:40.807Z,100.00
2019-02-27T17:28:09.483Z,100.00
2019-02-27T17:30:38.400Z,100.00
2019-02-27T17:33:07.078Z,100.00
2019-02-27T17:35:39.819Z,100.00
2019-02-27T17:38:10.858Z,100.00
2019-02-27T17:40:38.851Z,100.00
2019-02-27T17:43:07.502Z,100.00
2019-02-27T17:45:36.188Z,100.00
2019-02-27T17:48:09.387Z,100.00
2019-02-27T17:50:39.295Z,100.00
2019-02-27T17:53:07.851Z,100.00
2019-02-27T17:55:38.249Z,100.00
2019-02-27T17:58:06.882Z,100.00
2019-02-27T18:00:50.386Z,100.00
2019-02-27T18:03:17.735Z,100.00
2019-02-27T18:05:46.298Z,100.00
2019-02-27T18:08:16.389Z,100.00
2019-02-27T18:10:45.312Z,100.00
2019-02-27T18:13:13.877Z,100.00
2019-02-27T18:15:42.507Z,100.00
2019-02-27T18:18:11.145Z,100.00
2019-02-27T18:20:39.769Z,100.00
2019-02-27T18:23:08.436Z,100.00
2019-02-27T18:25:41.185Z,100.00
2019-02-27T18:28:07.392Z,100.00
2019-02-27T18:30:36.095Z,100.00
2019-02-27T18:33:04.762Z,100.00
2019-02-27T18:35:33.382Z,100.00
2019-02-27T18:38:02.017Z,100.00
2019-02-27T18:40:30.654Z,100.00
2019-02-27T18:42:59.322Z,100.00
2019-02-27T18:45:29.046Z,100.00
2019-02-27T18:47:58.745Z,100.00
2019-02-27T18:50:27.647Z,100.00
2019-02-27T18:52:56.283Z,100.00
2019-02-27T18:55:29.411Z,100.00
2019-02-27T18:58:01.691Z,100.00
2019-02-27T19:00:36.225Z,100.00
2019-02-27T19:03:08.782Z,100.00
2019-02-27T19:05:40.843Z,100.00
2019-02-27T19:08:07.777Z,100.00
2019-02-27T19:10:42.413Z,100.00
2019-02-27T19:13:11.431Z,100.00
2019-02-27T19:15:45.487Z,100.00
2019-02-27T19:18:10.452Z,100.00
2019-02-27T19:20:45.230Z,100.00
2019-02-27T19:23:17.675Z,100.00
2019-02-27T19:25:45.146Z,100.00
2019-02-27T19:28:13.859Z,100.00
2019-02-27T19:30:42.680Z,100.00
2019-02-27T19:33:11.371Z,100.00
2019-02-27T19:35:40.009Z,100.00
2019-02-27T19:38:12.640Z,100.00
2019-02-27T19:40:39.222Z,100.00
2019-02-27T19:43:07.956Z,100.00
2019-02-27T19:45:36.754Z,100.00
2019-02-27T19:48:05.523Z,100.00
2019-02-27T19:50:34.200Z,100.00
2019-02-27T19:53:06.631Z,100.00
2019-02-27T19:55:33.239Z,100.00
2019-02-27T19:58:01.909Z,100.00
2019-02-27T20:00:35.039Z,100.00
2019-02-27T20:03:02.949Z,100.00
2019-02-27T20:05:31.725Z,100.00
2019-02-27T20:08:02.365Z,100.00
2019-02-27T20:10:33.136Z,100.00
2019-02-27T20:13:01.096Z,100.00
2019-02-27T20:15:29.823Z,100.00
2019-02-27T20:17:58.399Z,100.00
2019-02-27T20:20:27.036Z,100.00
2019-02-27T20:22:57.045Z,100.00
2019-02-27T20:25:27.967Z,100.00
2019-02-27T20:28:00.300Z,100.00
2019-02-27T20:30:29.018Z,100.00
2019-02-27T20:32:59.867Z,100.00
2019-02-27T20:35:27.892Z,100.00
2019-02-27T20:38:05.496Z,100.00
2019-02-27T20:40:35.119Z,100.00
2019-02-27T20:43:06.688Z,100.00
2019-02-27T20:45:35.359Z,100.00
2019-02-27T20:48:04.037Z,100.00
2019-02-27T20:50:38.405Z,100.00
2019-02-27T20:53:08.581Z,100.00
2019-02-27T20:55:37.225Z,100.00
2019-02-27T20:58:16.718Z,100.00
2019-02-27T21:00:45.215Z,100.00
2019-02-27T21:03:13.813Z,100.00
2019-02-27T21:05:48.474Z,100.00
2019-02-27T21:08:16.787Z,100.00
2019-02-27T21:10:45.424Z,100.00
2019-02-27T21:13:16.043Z,100.00
2019-02-27T21:15:44.452Z,100.00
2019-02-27T21:18:13.202Z,100.00
2019-02-27T21:20:42.173Z,100.00
2019-02-27T21:23:12.161Z,100.00
2019-02-27T21:25:40.751Z,100.00
2019-02-27T21:28:09.372Z,100.00
2019-02-27T21:30:38.030Z,100.00
2019-02-27T21:33:08.295Z,100.00
2019-02-27T21:35:37.009Z,100.00
2019-02-27T21:38:05.578Z,100.00
2019-02-27T21:40:36.295Z,100.00
2019-02-27T21:43:04.596Z,100.00
2019-02-27T21:45:37.129Z,99.80
2019-02-27T21:48:03.582Z,100.00
2019-02-27T21:50:32.244Z,99.00
2019-02-27T21:53:00.815Z,100.00
2019-02-27T21:55:29.288Z,99.47
2019-02-27T21:57:58.256Z,99.27
2019-02-27T22:00:29.601Z,99.13
2019-02-27T22:03:04.086Z,99.63
2019-02-27T22:05:29.321Z,98.76
2019-02-27T22:07:57.943Z,98.17
2019-02-27T22:10:26.542Z,97.62
2019-02-27T22:12:55.077Z,97.52
2019-02-27T22:15:25.901Z,98.07
2019-02-27T22:17:54.511Z,98.49
2019-02-27T22:20:25.810Z,95.67
2019-02-27T22:22:53.525Z,93.92
2019-02-27T22:25:22.148Z,92.94
2019-02-27T22:27:50.819Z,91.62
2019-02-27T22:30:20.738Z,91.86
2019-02-27T22:32:49.418Z,92.20
2019-02-27T22:35:18.159Z,93.57
2019-02-27T22:37:52.590Z,94.62
2019-02-27T22:40:22.726Z,95.74
2019-02-27T22:42:51.349Z,97.19
2019-02-27T22:45:20.821Z,95.37
2019-02-27T22:47:50.302Z,92.58
2019-02-27T22:50:20.073Z,93.49
2019-02-27T22:52:54.242Z,94.91
2019-02-27T22:55:19.257Z,95.08
2019-02-27T22:57:47.887Z,95.08
2019-02-27T23:00:26.796Z,96.65
2019-02-27T23:02:55.429Z,98.08
2019-02-27T23:05:24.400Z,97.52
2019-02-27T23:07:52.963Z,100.00
2019-02-27T23:10:21.694Z,100.00
2019-02-27T23:12:50.374Z,99.94
2019-02-27T23:15:18.992Z,97.31
2019-02-27T23:17:47.592Z,95.89
2019-02-27T23:20:17.466Z,94.31
2019-02-27T23:22:46.607Z,94.43
2019-02-27T23:25:16.209Z,92.51
2019-02-27T23:27:44.905Z,91.76
2019-02-27T23:30:15.962Z,90.01
2019-02-27T23:32:43.851Z,90.36
2019-02-27T23:35:15.992Z,89.29
2019-02-27T23:37:42.812Z,89.10
2019-02-27T23:40:17.249Z,90.72
2019-02-27T23:42:41.825Z,90.57
2019-02-27T23:45:11.050Z,88.96
2019-02-27T23:47:39.669Z,87.72
2019-02-27T23:50:12.069Z,89.78
2019-02-27T23:52:40.811Z,88.91
2019-02-27T23:55:10.069Z,88.61
2019-02-27T23:57:40.014Z,89.54
